createdAt,value
2022-11-20T00:00:58.483Z,5.22
2022-11-20T00:03:26.360Z,4.28
2022-11-20T00:05:54.228Z,4.80
2022-11-20T00:08:22.133Z,5.78
2022-11-20T00:10:50.051Z,6.25
2022-11-20T00:13:17.982Z,5.13
2022-11-20T00:15:45.877Z,5.05
2022-11-20T00:18:15.246Z,4.63
2022-11-20T00:20:43.135Z,5.00
2022-11-20T00:23:11.084Z,4.53
2022-11-20T00:25:38.946Z,4.88
2022-11-20T00:28:06.848Z,5.20
2022-11-20T00:30:34.803Z,4.97
2022-11-20T00:33:02.749Z,4.32
2022-11-20T00:35:32.070Z,3.88
2022-11-20T00:37:59.957Z,4.20
2022-11-20T00:40:27.830Z,4.50
2022-11-20T00:42:55.690Z,4.30
2022-11-20T00:45:23.559Z,3.80
2022-11-20T00:47:51.473Z,4.18
2022-11-20T00:50:19.415Z,3.50
2022-11-20T00:52:48.666Z,3.85
2022-11-20T00:55:16.615Z,3.20
2022-11-20T00:57:44.522Z,3.22
2022-11-20T01:00:12.921Z,3.40
2022-11-20T01:02:40.776Z,3.80
2022-11-20T01:05:09.064Z,3.42
2022-11-20T01:07:36.974Z,3.15
2022-11-20T01:10:07.274Z,3.58
2022-11-20T01:12:35.182Z,3.40
2022-11-20T01:15:03.198Z,3.53
2022-11-20T01:17:32.739Z,3.97
2022-11-20T01:20:00.604Z,3.65
2022-11-20T01:22:28.443Z,4.05
2022-11-20T01:24:56.301Z,3.85
2022-11-20T01:27:25.538Z,3.13
2022-11-20T01:29:58.232Z,3.65
2022-11-20T01:32:28.827Z,3.88
2022-11-20T01:34:56.729Z,3.72
2022-11-20T01:37:24.639Z,3.50
2022-11-20T01:39:52.520Z,4.38
2022-11-20T01:42:38.019Z,3.70
2022-11-20T01:45:47.480Z,3.75
2022-11-20T01:48:17.196Z,4.32
2022-11-20T01:50:45.415Z,4.07
2022-11-20T01:53:16.733Z,3.30
2022-11-20T01:55:49.845Z,3.90
2022-11-20T01:58:18.794Z,3.13
2022-11-20T02:00:46.701Z,4.20
2022-11-20T02:03:18.122Z,4.07
2022-11-20T02:05:50.827Z,3.60
2022-11-20T02:08:21.252Z,4.72
2022-11-20T02:10:49.207Z,4.53
2022-11-20T02:13:34.876Z,4.35
2022-11-20T02:16:03.199Z,4.50
2022-11-20T02:18:32.840Z,3.80
2022-11-20T02:21:06.605Z,5.25
2022-11-20T02:23:40.407Z,5.60
2022-11-20T02:26:13.683Z,5.13
2022-11-20T02:28:41.944Z,5.93
2022-11-20T02:31:09.941Z,6.03
2022-11-20T02:33:37.889Z,6.57
2022-11-20T02:36:06.562Z,7.07
2022-11-20T02:38:34.535Z,6.13
2022-11-20T02:41:02.535Z,6.93
2022-11-20T02:43:31.814Z,7.07
2022-11-20T02:45:59.846Z,8.35
2022-11-20T02:48:30.241Z,6.55
2022-11-20T02:51:01.678Z,6.20
2022-11-20T02:53:30.898Z,7.30
2022-11-20T02:55:58.785Z,6.57
2022-11-20T02:58:26.783Z,5.88
2022-11-20T03:00:56.076Z,6.82
2022-11-20T03:03:24.040Z,6.90
2022-11-20T03:05:51.987Z,7.22
2022-11-20T03:08:19.931Z,6.55
2022-11-20T03:10:47.796Z,6.63
2022-11-20T03:13:15.678Z,6.40
2022-11-20T03:15:44.153Z,6.82
2022-11-20T03:18:14.770Z,7.28
2022-11-20T03:20:42.634Z,7.25
2022-11-20T03:23:10.528Z,6.40
2022-11-20T03:25:38.420Z,7.53
2022-11-20T03:28:06.473Z,6.68
2022-11-20T03:30:34.775Z,7.07
2022-11-20T03:33:02.702Z,6.63
2022-11-20T03:35:32.082Z,7.38
2022-11-20T03:38:00.148Z,6.28
2022-11-20T03:40:28.183Z,6.30
2022-11-20T03:42:56.049Z,6.60
2022-11-20T03:45:23.945Z,7.47
2022-11-20T03:47:52.522Z,6.13
2022-11-20T03:50:20.424Z,6.30
2022-11-20T03:52:49.678Z,6.32
2022-11-20T03:55:17.683Z,6.68
2022-11-20T03:57:45.597Z,6.75
2022-11-20T04:00:15.045Z,6.72
2022-11-20T04:02:42.927Z,6.65
2022-11-20T04:05:10.855Z,6.45
2022-11-20T04:07:38.745Z,6.85
2022-11-20T04:10:09.036Z,6.00
2022-11-20T04:12:36.929Z,6.25
2022-11-20T04:15:05.355Z,5.82
2022-11-20T04:17:33.371Z,5.53
2022-11-20T04:20:01.383Z,5.53
2022-11-20T04:22:29.481Z,5.70
2022-11-20T04:24:57.398Z,5.38
2022-11-20T04:27:26.635Z,6.20
2022-11-20T04:29:54.516Z,5.68
2022-11-20T04:32:22.393Z,5.75
2022-11-20T04:34:50.319Z,5.57
2022-11-20T04:37:18.210Z,6.20
2022-11-20T04:39:46.215Z,5.88
2022-11-20T04:42:32.058Z,5.82
2022-11-20T04:45:01.351Z,5.75
2022-11-20T04:47:29.209Z,6.25
2022-11-20T04:49:57.222Z,6.57
2022-11-20T04:52:25.209Z,6.70
2022-11-20T04:54:54.303Z,6.15
2022-11-20T04:57:22.211Z,5.63
2022-11-20T04:59:50.173Z,5.65
2022-11-20T05:02:19.693Z,5.95
2022-11-20T05:04:47.611Z,5.80
2022-11-20T05:07:15.621Z,6.28
2022-11-20T05:09:43.575Z,5.35
2022-11-20T05:12:11.799Z,5.75
2022-11-20T05:14:39.674Z,5.40
2022-11-20T05:17:07.658Z,5.28
2022-11-20T05:19:36.868Z,5.47
2022-11-20T05:22:06.036Z,5.38
2022-11-20T05:24:33.902Z,4.70
2022-11-20T05:27:01.776Z,6.03
2022-11-20T05:29:29.681Z,5.88
2022-11-20T05:31:57.601Z,5.45
2022-11-20T05:34:25.613Z,5.57
2022-11-20T05:36:54.880Z,5.75
2022-11-20T05:39:22.949Z,5.07
2022-11-20T05:42:11.527Z,4.70
2022-11-20T05:44:39.477Z,4.40
2022-11-20T05:47:07.633Z,4.28
2022-11-20T05:49:35.683Z,5.03
2022-11-20T05:52:05.230Z,4.57
2022-11-20T05:54:33.384Z,4.38
2022-11-20T05:57:01.657Z,3.92
2022-11-20T05:59:29.581Z,4.15
2022-11-20T06:01:57.473Z,4.93
2022-11-20T06:04:25.598Z,4.75
2022-11-20T06:06:53.454Z,4.30
2022-11-20T06:09:22.888Z,4.70
2022-11-20T06:11:50.986Z,4.57
2022-11-20T06:14:18.869Z,4.43
2022-11-20T06:16:46.757Z,4.53
2022-11-20T06:19:14.741Z,4.03
2022-11-20T06:21:42.745Z,4.10
2022-11-20T06:24:11.402Z,4.40
2022-11-20T06:26:40.600Z,4.22
2022-11-20T06:29:08.525Z,4.50
2022-11-20T06:31:38.631Z,4.85
2022-11-20T06:34:07.241Z,3.97
2022-11-20T06:36:35.544Z,4.10
2022-11-20T06:39:04.121Z,4.40
2022-11-20T06:41:32.082Z,4.82
2022-11-20T06:44:01.316Z,4.30
2022-11-20T06:46:29.228Z,4.57
2022-11-20T06:48:57.175Z,3.95
2022-11-20T06:51:25.057Z,4.32
2022-11-20T06:53:52.971Z,4.18
2022-11-20T06:56:20.850Z,4.95
2022-11-20T06:58:48.712Z,4.28
2022-11-20T07:01:18.451Z,4.05
2022-11-20T07:03:51.386Z,4.43
2022-11-20T07:06:21.852Z,3.63
2022-11-20T07:08:51.913Z,4.10
2022-11-20T07:11:19.727Z,3.13
2022-11-20T07:13:47.686Z,3.20
2022-11-20T07:16:16.985Z,3.50
2022-11-20T07:18:50.159Z,3.72
2022-11-20T07:21:18.645Z,3.55
2022-11-20T07:23:46.577Z,3.20
2022-11-20T07:26:14.616Z,3.92
2022-11-20T07:28:42.550Z,2.78
2022-11-20T07:31:14.612Z,3.30
2022-11-20T07:33:46.811Z,3.83
2022-11-20T07:36:14.742Z,3.20
2022-11-20T07:38:42.789Z,3.30
2022-11-20T07:41:10.701Z,3.00
2022-11-20T07:43:41.430Z,2.83
2022-11-20T07:46:09.714Z,2.50
2022-11-20T07:48:37.608Z,2.80
2022-11-20T07:51:06.868Z,2.95
2022-11-20T07:53:34.799Z,2.78
2022-11-20T07:56:03.324Z,4.47
2022-11-20T07:58:33.834Z,6.55
2022-11-20T08:01:05.225Z,5.00
2022-11-20T08:03:33.319Z,3.17
2022-11-20T08:06:01.927Z,2.65
2022-11-20T08:08:33.830Z,2.42
2022-11-20T08:11:16.399Z,2.40
2022-11-20T08:14:07.134Z,2.33
2022-11-20T08:16:35.072Z,2.70
2022-11-20T08:19:03.068Z,2.67
2022-11-20T08:21:37.828Z,2.97
2022-11-20T08:24:08.922Z,2.50
2022-11-20T08:26:37.850Z,2.97
2022-11-20T08:29:06.523Z,3.35
2022-11-20T08:31:34.754Z,3.08
2022-11-20T08:34:07.721Z,3.45
2022-11-20T08:36:37.416Z,3.55
2022-11-20T08:39:07.122Z,2.55
2022-11-20T08:41:35.827Z,2.67
2022-11-20T08:44:05.470Z,2.75
2022-11-20T08:46:36.300Z,2.30
2022-11-20T08:49:04.484Z,2.10
2022-11-20T08:51:32.763Z,2.00
2022-11-20T08:54:00.838Z,2.13
2022-11-20T08:56:30.128Z,2.33
2022-11-20T09:01:46.100Z,2.00
2022-11-20T09:04:15.322Z,1.58
2022-11-20T09:06:43.297Z,1.63
2022-11-20T09:09:11.177Z,2.08
2022-11-20T09:11:40.390Z,1.60
2022-11-20T09:14:08.414Z,1.50
2022-11-20T09:16:36.373Z,1.55
2022-11-20T09:21:58.282Z,1.57
2022-11-20T09:24:27.597Z,1.83
2022-11-20T09:26:56.792Z,1.10
2022-11-20T09:29:24.702Z,1.20
2022-11-20T09:31:52.613Z,1.15
2022-11-20T09:34:20.515Z,1.30
2022-11-20T09:36:48.398Z,1.58
2022-11-20T09:39:16.320Z,1.38
2022-11-20T09:42:07.544Z,1.15
2022-11-20T09:44:50.837Z,1.23
2022-11-20T09:47:28.224Z,0.95
2022-11-20T09:50:12.200Z,1.05
2022-11-20T09:52:46.756Z,0.80
2022-11-20T09:55:16.207Z,1.00
2022-11-20T09:57:48.927Z,0.93
2022-11-20T10:00:17.571Z,1.02
2022-11-20T10:02:49.508Z,1.10
2022-11-20T10:05:20.636Z,0.80
2022-11-20T10:07:56.191Z,0.90
2022-11-20T10:10:33.065Z,0.75
2022-11-20T10:13:14.982Z,0.90
2022-11-20T10:15:54.049Z,1.27
2022-11-20T10:18:32.205Z,1.63
2022-11-20T10:23:54.975Z,1.95
2022-11-20T10:26:28.570Z,1.63
2022-11-20T10:29:09.802Z,1.85
2022-11-20T10:31:39.977Z,1.63
2022-11-20T10:34:22.187Z,1.77
2022-11-20T10:36:56.629Z,1.42
2022-11-20T10:39:32.165Z,1.83
2022-11-20T10:42:01.532Z,1.50
2022-11-20T10:45:04.460Z,1.73
2022-11-20T10:47:34.386Z,2.10
2022-11-20T10:50:06.365Z,1.70
2022-11-20T10:52:45.759Z,2.10
2022-11-20T10:55:24.340Z,2.38
2022-11-20T10:57:58.087Z,1.90
2022-11-20T11:00:27.368Z,2.17
2022-11-20T11:02:58.337Z,2.00
2022-11-20T11:05:38.308Z,1.77
2022-11-20T11:08:11.987Z,1.85
2022-11-20T11:10:48.885Z,1.55
2022-11-20T11:13:23.327Z,1.40
2022-11-20T11:15:53.225Z,1.73
2022-11-20T11:18:29.346Z,1.90
2022-11-20T11:20:58.478Z,1.60
2022-11-20T11:23:33.842Z,1.70
2022-11-20T11:26:03.454Z,1.48
2022-11-20T11:28:31.354Z,1.70
2022-11-20T11:31:00.591Z,1.85
2022-11-20T11:33:30.993Z,1.88
2022-11-20T11:36:02.226Z,1.48
2022-11-20T11:38:35.216Z,1.65
2022-11-20T11:41:04.246Z,1.10
2022-11-20T11:43:51.916Z,1.42
2022-11-20T11:46:35.488Z,1.50
2022-11-20T11:49:14.508Z,2.08
2022-11-20T11:51:53.104Z,1.52
2022-11-20T11:54:25.525Z,1.63
2022-11-20T11:56:54.831Z,1.13
2022-11-20T11:59:29.302Z,1.45
2022-11-20T12:02:02.862Z,1.20
2022-11-20T12:04:48.272Z,1.20
2022-11-20T12:07:45.476Z,1.05
2022-11-20T12:10:19.104Z,2.45
2022-11-20T12:12:51.788Z,0.90
2022-11-20T12:15:28.038Z,1.20
2022-11-20T12:17:57.376Z,1.70
2022-11-20T12:20:29.128Z,1.00
2022-11-20T12:23:04.034Z,1.35
2022-11-20T12:25:36.389Z,1.23
2022-11-20T12:28:43.806Z,1.00
2022-11-20T12:31:40.280Z,1.20
2022-11-20T12:34:29.809Z,1.20
2022-11-20T12:37:03.897Z,1.10
2022-11-20T12:39:37.446Z,0.90
2022-11-20T12:42:47.511Z,2.08
2022-11-20T12:48:08.524Z,0.77
2022-11-20T12:51:14.031Z,0.70
2022-11-20T12:53:45.175Z,0.90
2022-11-20T12:56:28.158Z,0.90
2022-11-20T12:59:10.312Z,1.02
2022-11-20T13:01:45.043Z,0.77
2022-11-20T13:04:30.608Z,0.77
2022-11-20T13:07:00.747Z,0.88
2022-11-20T13:09:29.650Z,1.27
2022-11-20T13:12:04.979Z,0.95
2022-11-20T13:14:39.770Z,0.90
2022-11-20T13:17:15.107Z,1.10
2022-11-20T13:19:43.718Z,1.10
2022-11-20T13:22:13.010Z,1.10
2022-11-20T13:24:40.946Z,1.30
2022-11-20T13:27:22.233Z,0.90
2022-11-20T13:30:03.252Z,0.98
2022-11-20T13:32:34.140Z,1.13
2022-11-20T13:35:04.314Z,1.05
2022-11-20T13:37:35.365Z,1.10
2022-11-20T13:40:24.078Z,1.00
2022-11-20T13:45:28.201Z,1.00
2022-11-20T13:47:57.380Z,0.95
2022-11-20T13:50:42.641Z,1.48
2022-11-20T13:53:26.579Z,1.08
2022-11-20T13:56:00.953Z,1.00
2022-11-20T13:58:42.627Z,1.13
2022-11-20T14:01:15.270Z,1.23
2022-11-20T14:04:05.100Z,1.40
2022-11-20T14:06:34.958Z,1.30
2022-11-20T14:09:04.403Z,1.10
2022-11-20T14:11:33.121Z,1.33
2022-11-20T14:14:03.941Z,1.83
2022-11-20T14:16:34.388Z,1.45
2022-11-20T14:19:28.268Z,1.42
2022-11-20T14:22:08.629Z,1.60
2022-11-20T14:24:37.944Z,1.73
2022-11-20T14:27:06.178Z,1.50
2022-11-20T14:29:38.157Z,1.40
2022-11-20T14:32:06.852Z,1.40
2022-11-20T14:34:40.243Z,1.55
2022-11-20T14:37:16.874Z,1.27
2022-11-20T14:39:53.727Z,1.77
2022-11-20T14:42:23.379Z,1.40
2022-11-20T14:44:52.754Z,2.10
2022-11-20T14:47:23.812Z,1.50
2022-11-20T14:49:53.361Z,1.45
2022-11-20T14:52:23.371Z,1.55
2022-11-20T14:54:54.098Z,1.30
2022-11-20T14:57:33.145Z,1.58
2022-11-20T15:00:20.263Z,1.67
2022-11-20T15:02:50.109Z,1.52
2022-11-20T15:05:19.695Z,1.67
2022-11-20T15:07:49.390Z,1.88
2022-11-20T15:10:24.787Z,1.80
2022-11-20T15:12:53.974Z,1.85
2022-11-20T15:15:26.987Z,1.60
2022-11-20T15:17:55.159Z,1.38
2022-11-20T15:20:27.927Z,1.40
2022-11-20T15:22:55.836Z,1.50
2022-11-20T15:25:25.546Z,1.70
2022-11-20T15:27:57.524Z,1.67
2022-11-20T15:30:25.930Z,1.70
2022-11-20T15:32:54.078Z,1.60
2022-11-20T15:35:22.025Z,1.50
2022-11-20T15:37:49.986Z,1.73
2022-11-20T15:40:18.127Z,1.70
2022-11-20T15:43:01.326Z,1.80
2022-11-20T15:45:31.743Z,2.03
2022-11-20T15:47:59.847Z,1.95
2022-11-20T15:50:33.578Z,2.13
2022-11-20T15:53:01.625Z,1.80
2022-11-20T15:55:29.536Z,1.60
2022-11-20T15:57:58.745Z,1.63
2022-11-20T16:00:26.629Z,1.88
2022-11-20T16:02:54.564Z,1.85
2022-11-20T16:05:24.027Z,2.55
2022-11-20T16:07:52.833Z,2.28
2022-11-20T16:10:20.883Z,2.30
2022-11-20T16:13:06.412Z,2.45
2022-11-20T16:15:48.130Z,2.10
2022-11-20T16:18:18.797Z,2.25
2022-11-20T16:20:47.908Z,2.67
2022-11-20T16:23:16.401Z,2.67
2022-11-20T16:25:44.939Z,2.58
2022-11-20T16:28:18.453Z,2.30
2022-11-20T16:30:48.295Z,2.28
2022-11-20T16:33:18.965Z,2.53
2022-11-20T16:35:46.866Z,1.67
2022-11-20T16:38:14.752Z,2.75
2022-11-20T16:40:42.654Z,1.85
2022-11-20T16:43:12.405Z,2.00
2022-11-20T16:45:43.232Z,2.20
2022-11-20T16:48:16.385Z,2.20
2022-11-20T16:50:50.006Z,2.60
2022-11-20T16:53:19.892Z,2.22
2022-11-20T16:55:48.171Z,2.30
2022-11-20T16:58:16.760Z,2.30
2022-11-20T17:00:51.234Z,2.78
2022-11-20T17:03:21.242Z,3.05
2022-11-20T17:05:49.211Z,2.03
2022-11-20T17:08:17.125Z,3.28
2022-11-20T17:10:45.063Z,2.58
2022-11-20T17:13:12.960Z,2.45
2022-11-20T17:15:40.886Z,2.38
2022-11-20T17:18:08.818Z,2.38
2022-11-20T17:20:38.078Z,2.80
2022-11-20T17:23:05.963Z,2.33
2022-11-20T17:25:34.963Z,2.72
2022-11-20T17:28:03.064Z,2.28
2022-11-20T17:30:31.623Z,2.60
2022-11-20T17:32:59.534Z,2.45
2022-11-20T17:35:27.477Z,1.88
2022-11-20T17:37:56.669Z,2.55
2022-11-20T17:40:27.609Z,1.80
2022-11-20T17:42:56.140Z,2.33
2022-11-20T17:45:24.106Z,3.25
2022-11-20T17:47:52.083Z,1.80
2022-11-20T17:50:19.978Z,2.25
2022-11-20T17:52:47.876Z,3.13
2022-11-20T17:55:17.145Z,1.92
2022-11-20T17:57:53.085Z,2.20
2022-11-20T18:00:22.267Z,2.10
2022-11-20T18:02:50.617Z,2.30
2022-11-20T18:05:18.553Z,2.30
2022-11-20T18:07:46.502Z,2.10
2022-11-20T18:10:14.494Z,1.80
2022-11-20T18:12:43.883Z,1.90
2022-11-20T18:15:11.855Z,1.92
2022-11-20T18:17:39.797Z,1.80
2022-11-20T18:22:57.260Z,2.17
2022-11-20T18:25:25.263Z,2.28
2022-11-20T18:27:54.952Z,1.85
2022-11-20T18:30:23.396Z,1.63
2022-11-20T18:32:51.281Z,2.40
2022-11-20T18:35:19.245Z,2.17
2022-11-20T18:37:48.519Z,2.10
2022-11-20T18:40:16.569Z,1.88
2022-11-20T18:43:02.173Z,2.65
2022-11-20T18:45:31.655Z,2.28
2022-11-20T18:47:59.539Z,2.35
2022-11-20T18:50:27.491Z,2.65
2022-11-20T18:52:55.429Z,1.88
2022-11-20T18:55:25.857Z,1.73
2022-11-20T18:57:54.976Z,1.95
2022-11-20T19:00:22.901Z,2.67
2022-11-20T19:02:55.275Z,2.38
2022-11-20T19:05:23.210Z,1.70
2022-11-20T19:07:51.245Z,1.52
2022-11-20T19:10:20.463Z,1.48
2022-11-20T19:12:48.628Z,1.30
2022-11-20T19:15:16.562Z,1.55
2022-11-20T19:17:44.466Z,1.20
2022-11-20T19:20:13.990Z,0.70
2022-11-20T19:22:41.897Z,0.73
2022-11-20T19:25:10.255Z,0.80
2022-11-20T19:27:38.434Z,1.10
2022-11-20T19:30:07.148Z,0.80
2022-11-20T19:32:35.270Z,0.68
2022-11-20T19:35:03.594Z,1.70
2022-11-20T19:37:35.289Z,0.80
2022-11-20T19:40:04.652Z,1.58
2022-11-20T19:42:33.099Z,0.80
2022-11-20T19:45:01.014Z,0.90
2022-11-20T19:47:52.668Z,0.90
2022-11-20T19:50:16.956Z,0.80
2022-11-20T19:52:46.218Z,0.80
2022-11-20T19:55:14.416Z,0.77
2022-11-20T19:57:42.324Z,0.80
2022-11-20T20:00:12.372Z,0.90
2022-11-20T20:02:40.295Z,0.90
2022-11-20T20:05:08.855Z,0.90
2022-11-20T20:07:36.820Z,0.73
2022-11-20T20:10:07.095Z,0.75
2022-11-20T20:12:35.003Z,0.57
2022-11-20T20:15:03.032Z,0.70
2022-11-20T20:17:30.942Z,0.70
2022-11-20T20:19:58.847Z,0.63
2022-11-20T20:22:26.817Z,0.70
2022-11-20T20:24:54.745Z,0.70
2022-11-20T20:27:23.940Z,0.70
2022-11-20T20:29:51.837Z,0.80
2022-11-20T20:32:19.767Z,0.80
2022-11-20T20:34:47.639Z,0.70
2022-11-20T20:37:15.501Z,0.50
2022-11-20T20:39:43.656Z,0.70
2022-11-20T20:42:11.536Z,0.82
2022-11-20T20:44:58.095Z,1.00
2022-11-20T20:47:30.500Z,0.70
2022-11-20T20:49:58.564Z,0.98
2022-11-20T20:52:27.305Z,0.90
2022-11-20T20:54:55.613Z,0.70
2022-11-20T20:57:24.492Z,0.80
2022-11-20T20:59:53.876Z,1.05
2022-11-20T21:02:22.162Z,1.15
2022-11-20T21:04:50.107Z,0.88
2022-11-20T21:07:18.623Z,0.70
2022-11-20T21:09:46.844Z,0.60
2022-11-20T21:12:14.841Z,0.93
2022-11-20T21:14:42.762Z,1.00
2022-11-20T21:17:15.177Z,0.93
2022-11-20T21:19:43.618Z,0.82
2022-11-20T21:22:10.570Z,1.00
2022-11-20T21:24:38.499Z,0.77
2022-11-20T21:27:07.074Z,0.80
2022-11-20T21:29:35.003Z,1.00
2022-11-20T21:32:03.203Z,0.90
2022-11-20T21:34:32.539Z,0.60
2022-11-20T21:37:00.466Z,0.70
2022-11-20T21:39:30.280Z,1.00
2022-11-20T21:41:58.169Z,1.40
2022-11-20T21:44:33.342Z,0.70
2022-11-20T21:47:01.289Z,0.73
2022-11-20T21:49:29.217Z,0.70
2022-11-20T21:51:58.519Z,0.82
2022-11-20T21:54:26.815Z,0.80
2022-11-20T21:56:54.903Z,0.93
2022-11-20T21:59:23.164Z,1.00
2022-11-20T22:01:51.204Z,0.80
2022-11-20T22:04:19.957Z,1.15
2022-11-20T22:06:48.719Z,1.27
2022-11-20T22:09:18.057Z,1.23
2022-11-20T22:11:46.082Z,0.70
2022-11-20T22:14:22.430Z,0.90
2022-11-20T22:16:52.287Z,0.90
2022-11-20T22:19:21.570Z,1.17
2022-11-20T22:21:50.573Z,1.10
2022-11-20T22:24:21.753Z,1.17
2022-11-20T22:26:50.525Z,0.95
2022-11-20T22:29:20.770Z,1.10
2022-11-20T22:31:48.856Z,1.20
2022-11-20T22:34:16.791Z,1.40
2022-11-20T22:36:44.755Z,1.70
2022-11-20T22:39:12.827Z,0.98
2022-11-20T22:41:42.032Z,1.20
2022-11-20T22:44:14.412Z,1.50
2022-11-20T22:46:42.303Z,1.15
2022-11-20T22:49:10.476Z,1.17
2022-11-20T22:51:39.901Z,1.10
2022-11-20T22:54:09.802Z,1.50
2022-11-20T22:56:37.714Z,0.90
2022-11-20T22:59:06.985Z,0.98
2022-11-20T23:01:36.644Z,0.85
2022-11-20T23:04:06.780Z,0.80
2022-11-20T23:06:35.202Z,0.60
2022-11-20T23:09:03.362Z,0.73
2022-11-20T23:11:32.892Z,0.60
2022-11-20T23:14:02.773Z,0.68
2022-11-20T23:16:33.279Z,1.20
2022-11-20T23:19:03.606Z,0.70
2022-11-20T23:21:31.631Z,0.90
2022-11-20T23:24:00.376Z,0.77
2022-11-20T23:26:30.119Z,0.88
2022-11-20T23:28:59.284Z,1.00
2022-11-20T23:31:28.767Z,2.10
2022-11-20T23:33:58.511Z,1.15
2022-11-20T23:36:26.676Z,0.88
2022-11-20T23:38:54.521Z,1.35
2022-11-20T23:41:22.457Z,1.10
2022-11-20T23:43:50.378Z,1.15
2022-11-20T23:46:18.289Z,1.30
2022-11-20T23:48:46.373Z,1.10
2022-11-20T23:51:15.835Z,0.85
2022-11-20T23:53:43.988Z,1.00
2022-11-20T23:56:14.174Z,0.75
2022-11-20T23:58:42.279Z,0.70
